Time;durP1;ratioP1;P1;durP2;ratioP2;P2;SDS_P1;SDS_P2;PMS_P1;PMS_P2;Temp;Humidity;BMP_temperature;BMP_pressure;BME280_temperature;BME280_humidity;BME280_pressure;Samples;Min_cycle;Max_cycle;Signal;HPM_P1;HPM_P2
2023/08/05 06:22:12;;;;;;;0.00;0.00;;;15.10;99.90;;;;;;689046;22;21640;-92
2023/08/05 06:24:38;;;;;;;0.00;0.00;;;15.00;99.90;;;;;;5031610;28;20060;-88
2023/08/05 06:27:04;;;;;;;0.00;0.00;;;15.90;99.90;;;;;;5032989;28;20021;-89
2023/08/05 06:29:30;;;;;;;0.00;0.00;;;;;;;;;;5032562;28;20076;-89
2023/08/05 06:31:56;;;;;;;0.00;0.00;;;;;;;;;;5032527;28;20060;-87
2023/08/05 06:34:22;;;;;;;0.00;0.00;;;;;;;;;;5033244;28;20079;-89
2023/08/05 06:36:48;;;;;;;0.00;0.00;;;;;;;;;;5033685;28;20028;-88
2023/08/05 06:39:14;;;;;;;0.00;0.00;;;;;;;;;;5034425;28;20048;-89
2023/08/05 06:41:39;;;;;;;0.00;0.00;;;15.40;99.90;;;;;;5033856;28;20037;-89
2023/08/05 06:44:05;;;;;;;0.00;0.00;;;15.50;99.90;;;;;;5033657;28;20018;-88
2023/08/05 06:46:31;;;;;;;0.00;0.00;;;;;;;;;;5048656;28;20083;-90
2023/08/05 07:09:32;;;;;;;0.00;0.00;;;16.50;99.90;;;;;;5018474;28;20410;-87
2023/08/05 07:11:58;;;;;;;0.00;0.00;;;16.80;99.90;;;;;;4984417;28;20021;-88
2023/08/05 07:14:25;;;;;;;0.00;0.00;;;;;;;;;;5003812;28;20028;-87
2023/08/05 07:16:50;;;;;;;0.00;0.00;;;16.80;99.90;;;;;;4995417;28;20501;-88
2023/08/05 07:19:16;;;;;;;0.00;0.00;;;;;;;;;;5004323;28;20033;-85
2023/08/05 07:21:42;;;;;;;0.00;0.00;;;;;;;;;;5002906;28;20152;-89
2023/08/05 07:24:08;;;;;;;0.00;0.00;;;17.10;99.90;;;;;;5002158;28;20033;-86
2023/08/05 07:26:34;;;;;;;0.00;0.00;;;;;;;;;;5002983;28;20027;-89
2023/08/05 07:29:00;;;;;;;0.00;0.00;;;;;;;;;;5006980;28;20030;-86
2023/08/05 07:31:25;;;;;;;0.00;0.00;;;17.20;99.90;;;;;;5008523;28;20022;-85
2023/08/05 07:33:51;;;;;;;0.00;0.00;;;17.20;99.90;;;;;;5007973;28;20104;-85
2023/08/05 07:36:17;;;;;;;0.00;0.00;;;;;;;;;;5007414;28;20037;-85
2023/08/05 07:38:45;;;;;;;0.00;0.00;;;17.30;99.90;;;;;;5011347;28;20040;-86
2023/08/05 07:41:13;;;;;;;0.00;0.00;;;17.60;99.90;;;;;;5010819;28;20477;-87
2023/08/05 07:43:39;;;;;;;0.00;0.00;;;17.50;99.90;;;;;;5011875;28;20052;-87
2023/08/05 07:46:06;;;;;;;0.00;0.00;;;;;;;;;;5013449;28;20526;-88
2023/08/05 07:48:35;;;;;;;0.00;0.00;;;18.10;99.90;;;;;;5011418;28;20033;-89
2023/08/05 07:51:01;;;;;;;;;;;18.00;99.90;;;;;;5011237;28;20044;-90
2023/08/05 07:53:29;;;;;;;0.00;0.00;;;;;;;;;;5011869;28;19920;-87
2023/08/05 07:55:56;;;;;;;0.00;0.00;;;17.60;99.90;;;;;;5010183;28;20024;-87
2023/08/05 07:58:21;;;;;;;0.00;0.00;;;18.00;99.90;;;;;;5007987;28;20040;-89
2023/08/05 08:00:47;;;;;;;0.00;0.00;;;19.40;99.90;;;;;;5006928;28;20022;-87
2023/08/05 08:03:13;;;;;;;0.00;0.00;;;;;;;;;;5009605;28;20029;-87
2023/08/05 08:05:38;;;;;;;0.00;0.00;;;18.60;99.90;;;;;;5013019;28;20033;-87
2023/08/05 08:08:05;;;;;;;0.00;0.00;;;;;;;;;;5006858;28;20066;-88
2023/08/05 08:10:30;;;;;;;0.00;0.00;;;18.70;99.90;;;;;;5008588;28;20125;-88
2023/08/05 08:12:56;;;;;;;0.00;0.00;;;19.00;99.90;;;;;;5003625;28;20033;-89
2023/08/05 08:15:21;;;;;;;0.00;0.00;;;18.90;99.90;;;;;;5010019;28;20026;-89
2023/08/05 08:17:47;;;;;;;0.00;0.00;;;18.80;99.90;;;;;;5011369;28;20061;-88
2023/08/05 08:20:12;;;;;;;0.00;0.00;;;18.90;99.90;;;;;;5004158;28;20041;-90
2023/08/05 08:22:38;;;;;;;0.00;0.00;;;;;;;;;;5013898;28;20040;-88
2023/08/05 08:25:04;;;;;;;0.00;0.00;;;19.30;99.90;;;;;;5011873;28;20037;-90
2023/08/05 08:27:30;;;;;;;0.00;0.00;;;;;;;;;;4993601;28;20030;-89
2023/08/05 08:29:56;;;;;;;0.00;0.00;;;;;;;;;;4996109;28;20022;-89
2023/08/05 08:32:22;;;;;;;0.00;0.00;;;;;;;;;;5014135;28;20113;-88
2023/08/05 08:34:48;;;;;;;0.00;0.00;;;;;;;;;;5015010;28;20068;-86
2023/08/05 08:37:14;;;;;;;0.00;0.00;;;;;;;;;;5012568;28;20250;-91
2023/08/05 08:39:40;;;;;;;0.00;0.00;;;;;;;;;;5010054;28;20116;-88
2023/08/05 08:42:06;;;;;;;0.00;0.00;;;19.80;99.90;;;;;;5021733;28;20019;-89
2023/08/05 08:44:32;;;;;;;0.00;0.00;;;;;;;;;;5011266;28;20033;-87
2023/08/05 08:46:58;;;;;;;0.00;0.00;;;20.00;99.90;;;;;;5010597;28;20026;-86
2023/08/05 08:49:24;;;;;;;0.00;0.00;;;;;;;;;;5011332;28;20022;-90
2023/08/05 08:51:50;;;;;;;0.00;0.00;;;;;;;;;;5013615;28;20068;-88
2023/08/05 08:54:17;;;;;;;0.00;0.00;;;20.30;99.90;;;;;;5015280;28;20462;-89
2023/08/05 08:56:42;;;;;;;0.00;0.00;;;19.10;99.90;;;;;;5003336;28;20038;-87
2023/08/05 08:59:08;;;;;;;0.00;0.00;;;21.40;99.90;;;;;;5003272;28;20380;-87
2023/08/05 09:01:42;;;;;;;0.00;0.00;;;20.50;99.90;;;;;;5007604;28;20504;-88
2023/08/05 09:04:09;;;;;;;0.00;0.00;;;20.50;99.90;;;;;;5011395;28;20139;-90
2023/08/05 09:06:40;;;;;;;0.00;0.00;;;20.80;99.90;;;;;;5006917;28;20115;-88
2023/08/05 09:09:06;;;;;;;0.00;0.00;;;20.80;99.90;;;;;;5010706;28;20034;-89
2023/08/05 09:11:32;;;;;;;0.00;0.00;;;;;;;;;;5006407;28;20030;-88
2023/08/05 09:13:58;;;;;;;0.00;0.00;;;;;;;;;;5018260;28;20022;-87
2023/08/05 09:16:26;;;;;;;0.00;0.00;;;;;;;;;;5012502;28;20406;-88
2023/08/05 09:18:53;;;;;;;0.00;0.00;;;21.50;99.90;;;;;;5020410;28;20029;-90
2023/08/05 09:21:26;;;;;;;0.00;0.00;;;21.60;99.90;;;;;;5022395;28;20430;-89
2023/08/05 09:23:56;;;;;;;0.00;0.00;;;21.40;99.90;;;;;;5016316;28;20018;-90
2023/08/05 09:26:29;;;;;;;0.00;0.00;;;21.60;99.90;;;;;;5017256;28;20022;-89
2023/08/05 09:28:56;;;;;;;0.00;0.00;;;24.40;99.90;;;;;;5018069;28;20033;-90
2023/08/05 09:31:22;;;;;;;0.00;0.00;;;21.80;99.90;;;;;;5016734;28;20021;-90
2023/08/05 09:33:47;;;;;;;0.00;0.00;;;22.00;99.90;;;;;;5014870;28;20022;-91
2023/08/05 09:36:22;;;;;;;0.00;0.00;;;23.60;99.90;;;;;;5017777;28;20092;-89
2023/08/05 09:39:05;;;;;;;0.00;0.00;;;23.60;99.90;;;;;;5015600;28;20030;-91
2023/08/05 09:41:34;;;;;;;0.00;0.00;;;22.10;99.90;;;;;;5015151;28;20482;-89
2023/08/05 09:44:00;;;;;;;0.00;0.00;;;;;;;;;;5015602;28;20028;-90
2023/08/05 09:46:45;;;;;;;0.00;0.00;;;21.80;99.90;;;;;;5015843;28;20030;-91
2023/08/05 09:49:17;;;;;;;0.00;0.00;;;21.80;99.90;;;;;;5014365;28;20148;-90
2023/08/05 09:51:45;;;;;;;0.00;0.00;;;21.70;99.90;;;;;;5017694;28;20387;-90
2023/08/05 09:54:17;;;;;;;0.00;0.00;;;22.30;99.90;;;;;;5017898;28;20423;-90
2023/08/05 09:56:44;;;;;;;0.00;0.00;;;21.30;99.90;;;;;;5013208;28;20097;-90
2023/08/05 09:59:12;;;;;;;0.00;0.00;;;21.30;99.90;;;;;;5013489;28;20479;-89
2023/08/05 10:01:39;;;;;;;0.00;0.00;;;22.90;99.90;;;;;;5015232;28;20022;-90
2023/08/05 10:04:06;;;;;;;0.00;0.00;;;21.70;99.90;;;;;;5009090;28;20230;-90
2023/08/05 10:06:36;;;;;;;0.00;0.00;;;21.60;99.90;;;;;;5017702;28;20368;-90
2023/08/05 10:09:02;;;;;;;0.00;0.00;;;;;;;;;;5013566;28;20458;-90
2023/08/05 10:11:28;;;;;;;0.00;0.00;;;21.50;99.90;;;;;;5015224;28;20037;-90
2023/08/05 10:13:56;;;;;;;0.00;0.00;;;23.30;99.90;;;;;;5018160;28;20025;-90
2023/08/05 10:16:23;;;;;;;0.00;0.00;;;22.30;99.90;;;;;;5014311;28;20181;-91
2023/08/05 10:18:49;;;;;;;0.00;0.00;;;21.70;99.90;;;;;;5012799;28;20022;-89
2023/08/05 10:21:35;;;;;;;0.00;0.00;;;21.70;99.90;;;;;;5020123;28;20037;-90
2023/08/05 10:24:01;;;;;;;0.00;0.00;;;21.60;99.90;;;;;;5007459;28;20041;-87
2023/08/05 10:26:42;;;;;;;0.00;0.00;;;21.40;99.90;;;;;;5007033;28;20026;-90
2023/08/05 10:29:29;;;;;;;0.00;0.00;;;21.80;99.90;;;;;;5006838;28;20169;-90
2023/08/05 10:32:14;;;;;;;0.00;0.00;;;22.20;99.90;;;;;;5015266;28;20310;-92
2023/08/05 10:34:39;;;;;;;0.00;0.00;;;22.00;99.90;;;;;;5012309;28;20017;-89
2023/08/05 10:37:05;;;;;;;0.00;0.00;;;;;;;;;;5011575;28;20402;-88
2023/08/05 10:39:40;;;;;;;0.00;0.00;;;22.00;99.90;;;;;;5009284;28;20049;-91
2023/08/05 10:42:20;;;;;;;0.00;0.00;;;23.00;99.90;;;;;;5014910;28;20548;-90
2023/08/05 10:44:48;;;;;;;;;;;23.10;99.90;;;;;;5015857;28;20101;-90
2023/08/05 10:47:18;;;;;;;0.00;0.00;;;21.50;99.90;;;;;;5016268;28;19924;-90
2023/08/05 10:49:43;;;;;;;0.00;0.00;;;21.50;99.90;;;;;;5016575;28;20553;-87
2023/08/05 10:52:16;;;;;;;0.00;0.00;;;21.50;99.90;;;;;;5017245;28;20022;-88
2023/08/05 10:54:42;;;;;;;0.00;0.00;;;21.80;99.90;;;;;;5015633;28;20393;-90
2023/08/05 10:57:32;;;;;;;0.00;0.00;;;21.80;99.90;;;;;;5026083;28;20108;-91
2023/08/05 11:00:03;;;;;;;0.00;0.00;;;21.90;99.90;;;;;;5020304;28;20022;-91
2023/08/05 11:02:30;;;;;;;0.00;0.00;;;22.70;99.90;;;;;;5014392;28;20030;-90
2023/08/05 11:05:09;;;;;;;0.00;0.00;;;24.50;99.90;;;;;;5017635;28;20036;-89
2023/08/05 11:07:39;;;;;;;0.00;0.00;;;21.90;99.90;;;;;;5012058;28;20034;-90
2023/08/05 11:10:06;;;;;;;0.00;0.00;;;22.50;99.90;;;;;;5008858;28;20128;-89
2023/08/05 11:12:31;;;;;;;0.00;0.00;;;22.70;99.90;;;;;;5018991;28;20082;-90
2023/08/05 11:14:58;;;;;;;0.00;0.00;;;;;;;;;;5012479;28;20045;-89
2023/08/05 11:17:23;;;;;;;0.00;0.00;;;22.70;99.90;;;;;;5010381;28;20022;-89
2023/08/05 11:19:53;;;;;;;0.00;0.00;;;25.50;99.90;;;;;;5015313;28;20018;-91
2023/08/05 11:22:26;;;;;;;0.00;0.00;;;22.40;99.90;;;;;;5010205;28;20059;-90
2023/08/05 11:25:03;;;;;;;0.00;0.00;;;22.60;99.90;;;;;;5018224;28;20041;-90
2023/08/05 11:27:39;;;;;;;0.00;0.00;;;23.20;99.90;;;;;;5007169;28;20387;-88
2023/08/05 11:30:18;;;;;;;0.00;0.00;;;23.20;99.90;;;;;;5014234;28;20029;-86
2023/08/05 11:32:55;;;;;;;0.00;0.00;;;23.30;99.90;;;;;;5023426;28;20141;-89
2023/08/05 11:35:21;;;;;;;0.00;0.00;;;23.40;99.90;;;;;;5012355;28;20030;-90
2023/08/05 11:37:47;;;;;;;0.00;0.00;;;23.50;99.90;;;;;;5012097;28;20053;-88
2023/08/05 11:40:13;;;;;;;0.00;0.00;;;;;;;;;;5014374;28;20092;-92
2023/08/05 11:42:40;;;;;;;0.00;0.00;;;23.50;99.90;;;;;;5030994;28;20029;-92
2023/08/05 11:45:10;;;;;;;0.00;0.00;;;23.40;99.90;;;;;;5026236;28;20045;-90
2023/08/05 11:47:37;;;;;;;0.00;0.00;;;23.50;99.90;;;;;;5007669;28;20034;-92
2023/08/05 11:50:03;;;;;;;0.00;0.00;;;23.80;99.90;;;;;;5012157;28;20026;-91
2023/08/05 11:52:28;;;;;;;0.00;0.00;;;24.00;99.90;;;;;;5014907;28;20025;-90
2023/08/05 11:54:58;;;;;;;0.00;0.00;;;23.80;99.90;;;;;;5015847;28;20017;-90
2023/08/05 11:57:25;;;;;;;0.00;0.00;;;23.60;99.90;;;;;;4997959;28;20028;-91
2023/08/05 11:59:53;;;;;;;0.00;0.00;;;;;;;;;;5012383;28;20025;-89
2023/08/05 12:02:19;;;;;;;0.00;0.00;;;23.60;99.90;;;;;;5011082;28;20030;-88
2023/08/05 12:04:49;;;;;;;0.00;0.00;;;26.00;99.90;;;;;;5009156;28;20025;-90
2023/08/05 12:07:20;;;;;;;0.00;0.00;;;23.60;99.90;;;;;;5013600;28;20026;-89
2023/08/05 12:10:03;;;;;;;0.00;0.00;;;25.20;99.90;;;;;;5014586;28;20022;-92
2023/08/05 12:12:28;;;;;;;0.00;0.00;;;26.10;99.90;;;;;;5016168;28;20026;-90
2023/08/05 12:15:26;;;;;;;0.00;0.00;;;23.70;99.90;;;;;;5011716;28;20459;-88
2023/08/05 12:18:10;;;;;;;0.00;0.00;;;23.80;99.90;;;;;;5013765;28;20030;-91
2023/08/05 12:20:37;;;;;;;0.00;0.00;;;23.80;99.90;;;;;;5005384;28;20018;-91
2023/08/05 12:23:03;;;;;;;0.00;0.00;;;24.00;99.90;;;;;;5011813;28;20060;-90
2023/08/05 12:25:32;;;;;;;0.00;0.00;;;23.70;99.90;;;;;;5016022;28;20053;-91
2023/08/05 12:27:58;;;;;;;0.00;0.00;;;;;;;;;;5005011;28;20113;-91
2023/08/05 12:30:24;;;;;;;0.00;0.00;;;23.00;99.90;;;;;;5012639;28;20026;-91
2023/08/05 12:32:50;;;;;;;0.00;0.00;;;;;;;;;;5006401;28;20108;-90
2023/08/05 12:35:16;;;;;;;0.00;0.00;;;23.30;99.90;;;;;;5009074;28;20026;-90
2023/08/05 12:37:42;;;;;;;0.00;0.00;;;24.60;99.90;;;;;;5013348;28;20018;-88
2023/08/05 12:40:10;;;;;;;0.00;0.00;;;25.60;99.90;;;;;;5013443;28;20026;-92
2023/08/05 12:42:36;;;;;;;0.00;0.00;;;23.80;99.90;;;;;;5013558;28;20018;-90
2023/08/05 12:45:05;;;;;;;0.00;0.00;;;23.80;99.90;;;;;;5007628;28;20026;-89
2023/08/05 13:21:14;;;;;;;0.00;0.00;;;24.30;99.90;;;;;;5030356;28;20049;-89
2023/08/05 13:23:40;;;;;;;0.00;0.00;;;;;;;;;;5031986;28;20029;-88
2023/08/05 13:26:06;;;;;;;0.00;0.00;;;;;;;;;;5033166;28;20049;-85
2023/08/05 13:28:32;;;;;;;0.00;0.00;;;24.40;99.90;;;;;;5017609;28;20029;-88
2023/08/05 13:31:04;;;;;;;0.00;0.00;;;24.40;99.90;;;;;;5012499;28;20164;-89
2023/08/05 13:33:30;;;;;;;0.00;0.00;;;24.50;99.90;;;;;;5009740;28;20399;-87
2023/08/05 13:35:57;;;;;;;0.00;0.00;;;24.40;99.90;;;;;;5012572;28;20049;-89
2023/08/05 13:38:23;;;;;;;0.00;0.00;;;26.30;99.90;;;;;;5007775;28;20118;-88
2023/08/05 13:40:50;;;;;;;0.00;0.00;;;24.60;99.90;;;;;;5011684;28;20076;-86
2023/08/05 13:43:16;;;;;;;0.00;0.00;;;24.60;99.90;;;;;;5011910;28;20030;-89
2023/08/05 13:45:55;;;;;;;0.00;0.00;;;24.60;99.90;;;;;;5006836;28;20022;-87
2023/08/05 13:48:24;;;;;;;0.00;0.00;;;25.60;99.90;;;;;;5003962;28;20030;-85
2023/08/05 13:51:03;;;;;;;0.00;0.00;;;24.70;99.90;;;;;;5013093;28;20026;-89
2023/08/05 13:53:29;;;;;;;0.00;0.00;;;26.20;99.90;;;;;;5011936;28;20030;-88
2023/08/05 13:55:56;;;;;;;0.00;0.00;;;25.00;99.90;;;;;;5007404;28;20352;-87
2023/08/05 13:58:21;;;;;;;0.00;0.00;;;25.10;99.90;;;;;;5010383;28;20483;-88
2023/08/05 14:00:47;;;;;;;0.00;0.00;;;25.10;99.90;;;;;;5011494;28;20022;-88
2023/08/05 14:03:13;;;;;;;0.00;0.00;;;;;;;;;;5009935;28;20038;-87
2023/08/05 14:05:39;;;;;;;0.00;0.00;;;;;;;;;;5004757;28;20014;-87
2023/08/05 14:08:05;;;;;;;0.00;0.00;;;;;;;;;;5002201;28;20426;-87
2023/08/05 14:10:31;;;;;;;0.00;0.00;;;;;;;;;;5004547;28;20430;-89
2023/08/05 14:12:57;;;;;;;0.00;0.00;;;;;;;;;;5009414;28;20036;-86
2023/08/05 14:15:23;;;;;;;0.00;0.00;;;25.30;99.60;;;;;;5003409;28;20581;-88
2023/08/05 14:17:49;;;;;;;0.00;0.00;;;;;;;;;;5011853;28;20022;-87
2023/08/05 14:20:14;;;;;;;0.00;0.00;;;25.40;99.90;;;;;;5019600;28;20040;-88
2023/08/05 14:22:40;;;;;;;0.00;0.00;;;25.40;99.70;;;;;;5012595;28;20022;-87
2023/08/05 14:25:06;;;;;;;0.00;0.00;;;25.50;98.80;;;;;;5014682;28;20176;-88
2023/08/05 14:27:32;;;;;;;0.00;0.00;;;;;;;;;;5013723;28;20450;-88
2023/08/05 14:29:57;;;;;;;0.00;0.00;;;25.60;98.40;;;;;;5011466;28;20030;-88
2023/08/05 14:32:23;;;;;;;0.00;0.00;;;;;;;;;;5014806;28;20037;-86
2023/08/05 14:34:49;;;;;;;0.00;0.00;;;;;;;;;;5006624;28;20029;-89
2023/08/05 14:37:15;;;;;;;0.00;0.00;;;25.50;99.90;;;;;;5013507;28;20552;-88
2023/08/05 14:39:40;;;;;;;0.00;0.00;;;27.20;99.90;;;;;;5012622;28;20512;-89
2023/08/05 14:42:06;;;;;;;0.00;0.00;;;25.50;99.90;;;;;;5012486;28;20493;-90
2023/08/05 14:44:32;;;;;;;0.00;0.00;;;;;;;;;;5007958;28;20383;-86
2023/08/05 14:46:57;;;;;;;0.00;0.00;;;25.60;98.80;;;;;;5011141;28;20026;-88
2023/08/05 14:49:23;;;;;;;0.00;0.00;;;25.40;98.80;;;;;;5010465;28;20122;-86
2023/08/05 14:51:49;;;;;;;0.00;0.00;;;25.50;99.00;;;;;;5010594;28;20040;-88
2023/08/05 14:54:15;;;;;;;0.00;0.00;;;;;;;;;;5011785;28;20037;-88
2023/08/05 14:56:40;;;;;;;0.00;0.00;;;25.70;98.00;;;;;;5011826;28;20403;-90
2023/08/05 14:59:06;;;;;;;0.00;0.00;;;;;;;;;;4997227;28;20026;-86
2023/08/05 15:01:32;;;;;;;0.00;0.00;;;;;;;;;;4994089;28;20034;-89
2023/08/05 15:03:58;;;;;;;0.00;0.00;;;;;;;;;;5001365;28;20030;-89
2023/08/05 15:06:24;;;;;;;0.00;0.00;;;25.60;97.60;;;;;;5012009;28;20034;-87
2023/08/05 15:08:55;;;;;;;0.00;0.00;;;;;;;;;;5010122;28;20394;-86
2023/08/05 15:11:21;;;;;;;0.00;0.00;;;25.60;98.00;;;;;;5010692;28;20026;-89
2023/08/05 15:13:47;;;;;;;0.00;0.00;;;;;;;;;;5012006;28;20033;-87
2023/08/05 15:16:13;;;;;;;0.00;0.00;;;;;;;;;;5020394;28;20113;-88
2023/08/05 15:18:40;;;;;;;0.00;0.00;;;25.60;97.70;;;;;;5011863;28;20478;-88
2023/08/05 15:21:06;;;;;;;0.00;0.00;;;25.70;99.80;;;;;;5006395;28;20034;-87
2023/08/05 15:23:33;;;;;;;0.00;0.00;;;;;;;;;;5009388;28;20483;-88
2023/08/05 15:26:01;;;;;;;0.00;0.00;;;25.80;97.40;;;;;;5003013;28;20506;-87
2023/08/05 15:28:27;;;;;;;0.00;0.00;;;26.40;98.70;;;;;;5010610;28;20037;-88
2023/08/05 15:30:53;;;;;;;0.00;0.00;;;25.90;98.20;;;;;;5010761;28;20125;-85
2023/08/05 15:33:19;;;;;;;0.00;0.00;;;26.40;98.50;;;;;;5018551;28;20129;-86
2023/08/05 15:35:45;;;;;;;0.00;0.00;;;;;;;;;;5010346;28;20052;-88
2023/08/05 15:38:11;;;;;;;0.00;0.00;;;;;;;;;;5007766;28;20037;-88
2023/08/05 15:40:37;;;;;;;0.00;0.00;;;;;;;;;;5007994;28;20030;-86
2023/08/05 15:43:03;;;;;;;0.00;0.00;;;;;;;;;;5027986;28;20152;-88
2023/08/05 15:45:29;;;;;;;0.00;0.00;;;;;;;;;;5009225;28;20033;-88
2023/08/05 15:47:55;;;;;;;0.00;0.00;;;;;;;;;;5023343;28;20029;-89
2023/08/05 15:50:21;;;;;;;0.00;0.00;;;;;;;;;;5009034;28;20033;-87
2023/08/05 15:52:48;;;;;;;0.00;0.00;;;24.50;98.80;;;;;;5009893;28;20022;-89
2023/08/05 15:55:14;;;;;;;0.00;0.00;;;24.50;99.00;;;;;;5005323;28;20463;-87
2023/08/05 15:57:41;;;;;;;0.00;0.00;;;;;;;;;;5010626;28;20026;-87
2023/08/05 16:00:10;;;;;;;0.00;0.00;;;24.30;99.40;;;;;;5010799;28;20068;-89
2023/08/05 16:02:36;;;;;;;;;;;24.40;98.90;;;;;;5003348;28;20026;-89
2023/08/05 16:05:02;;;;;;;0.00;0.00;;;;;;;;;;5010322;28;19955;-88
2023/08/05 16:07:28;;;;;;;0.00;0.00;;;24.30;98.50;;;;;;5005408;28;20022;-88
2023/08/05 16:09:54;;;;;;;0.00;0.00;;;24.20;98.40;;;;;;5009502;28;20395;-87
2023/08/05 16:12:20;;;;;;;0.00;0.00;;;;;;;;;;5003455;28;20034;-90
2023/08/05 16:15:04;;;;;;;0.00;0.00;;;23.90;98.60;;;;;;5012745;28;20018;-89
2023/08/05 16:17:33;;;;;;;0.00;0.00;;;23.40;99.70;;;;;;5010742;28;20041;-89
2023/08/05 16:19:59;;;;;;;0.00;0.00;;;;;;;;;;5008761;28;20441;-89
2023/08/05 16:22:25;;;;;;;0.00;0.00;;;;;;;;;;5009294;28;20076;-87
2023/08/05 16:24:51;;;;;;;0.00;0.00;;;23.20;99.90;;;;;;5005020;28;20487;-89
2023/08/05 16:27:17;;;;;;;0.00;0.00;;;24.50;99.90;;;;;;5011516;28;20434;-87
2023/08/05 16:29:43;;;;;;;0.00;0.00;;;22.90;99.70;;;;;;5015053;28;20040;-88
2023/08/05 16:32:08;;;;;;;0.00;0.00;;;;;;;;;;5014021;28;20018;-89
2023/08/05 16:34:34;;;;;;;0.00;0.00;;;22.90;99.90;;;;;;5007842;28;20045;-89
2023/08/05 16:37:00;;;;;;;0.00;0.00;;;22.90;99.90;;;;;;5015911;28;20020;-86
2023/08/05 16:39:25;;;;;;;0.00;0.00;;;22.80;99.90;;;;;;5013498;28;20112;-86
2023/08/05 16:41:51;;;;;;;0.00;0.00;;;;;;;;;;5000954;28;20026;-87
2023/08/05 16:44:19;;;;;;;0.00;0.00;;;22.70;99.90;;;;;;5016980;28;20033;-88
2023/08/05 16:46:47;;;;;;;0.00;0.00;;;22.40;99.90;;;;;;5015362;28;20057;-87
2023/08/05 16:49:13;;;;;;;0.00;0.00;;;22.50;99.90;;;;;;5015032;28;20540;-88
2023/08/05 16:51:38;;;;;;;0.00;0.00;;;22.20;99.90;;;;;;5015291;28;20022;-87
2023/08/05 16:54:04;;;;;;;0.00;0.00;;;;;;;;;;5015009;28;20331;-88
2023/08/05 16:56:30;;;;;;;0.00;0.00;;;;;;;;;;5012652;28;20030;-87
2023/08/05 16:58:56;;;;;;;0.00;0.00;;;22.00;99.90;;;;;;5003203;28;20018;-86
2023/08/05 17:01:22;;;;;;;0.00;0.00;;;;;;;;;;5015381;28;20033;-87
2023/08/05 17:03:48;;;;;;;0.00;0.00;;;;;;;;;;5002605;28;20026;-88
2023/08/05 17:06:14;;;;;;;0.00;0.00;;;;;;;;;;5004071;28;20037;-87
2023/08/05 17:08:41;;;;;;;0.00;0.00;;;;;;;;;;5015643;28;20372;-87
2023/08/05 17:11:08;;;;;;;0.00;0.00;;;;;;;;;;5015631;28;20418;-87
2023/08/05 17:13:36;;;;;;;0.00;0.00;;;;;;;;;;5015352;28;20029;-86
2023/08/05 17:16:02;;;;;;;0.00;0.00;;;;;;;;;;5008638;28;20530;-87
2023/08/05 17:18:28;;;;;;;0.00;0.00;;;21.10;99.90;;;;;;5025296;28;20041;-86
2023/08/05 17:20:55;;;;;;;0.00;0.00;;;20.40;99.90;;;;;;5011685;28;20037;-85
2023/08/05 17:23:22;;;;;;;0.00;0.00;;;20.30;99.90;;;;;;5012925;28;20121;-86
2023/08/05 17:25:47;;;;;;;0.00;0.00;;;19.60;99.90;;;;;;5011703;28;20057;-87
2023/08/05 17:28:14;;;;;;;0.00;0.00;;;;;;;;;;5009693;28;20038;-88
2023/08/05 17:30:39;;;;;;;0.00;0.00;;;19.20;99.90;;;;;;5014210;28;20528;-87
2023/08/05 17:33:06;;;;;;;0.00;0.00;;;;;;;;;;5012495;28;20022;-87
2023/08/05 17:35:32;;;;;;;0.00;0.00;;;18.60;99.90;;;;;;5013658;28;20025;-88
2023/08/05 17:37:58;;;;;;;0.00;0.00;;;18.40;99.90;;;;;;5012543;28;20109;-87
2023/08/05 17:40:24;;;;;;;0.00;0.00;;;18.30;99.90;;;;;;5011134;28;20054;-87
2023/08/05 17:42:50;;;;;;;0.00;0.00;;;18.10;99.90;;;;;;5013679;28;20538;-88
2023/08/05 17:45:17;;;;;;;0.00;0.00;;;;;;;;;;5012654;28;20030;-88
2023/08/05 17:47:43;;;;;;;0.00;0.00;;;17.90;99.90;;;;;;5011991;28;20087;-89
2023/08/05 17:50:09;;;;;;;0.00;0.00;;;17.90;99.90;;;;;;5005711;28;20551;-91
2023/08/05 17:52:35;;;;;;;0.00;0.00;;;;;;;;;;5014198;28;20399;-87
2023/08/05 17:55:01;;;;;;;0.00;0.00;;;;;;;;;;5013846;28;20055;-89
2023/08/05 17:57:31;;;;;;;0.00;0.00;;;17.30;99.90;;;;;;5012706;28;20022;-89
2023/08/05 17:59:57;;;;;;;0.00;0.00;;;17.20;99.90;;;;;;5009532;28;20026;-89
2023/08/05 18:02:23;;;;;;;0.00;0.00;;;;;;;;;;5008566;28;20496;-88
2023/08/05 18:04:50;;;;;;;0.00;0.00;;;;;;;;;;5014521;28;20471;-90
2023/08/05 18:07:31;;;;;;;0.00;0.00;;;;;;;;;;5014406;28;20076;-89
2023/08/05 18:09:58;;;;;;;0.00;0.00;;;16.80;99.90;;;;;;5013489;28;20029;-90
2023/08/05 18:12:24;;;;;;;0.00;0.00;;;19.10;99.90;;;;;;5016153;28;20372;-86
2023/08/05 18:14:49;;;;;;;0.00;0.00;;;;;;;;;;5017900;28;20164;-87
2023/08/05 18:17:16;;;;;;;0.00;0.00;;;;;;;;;;5011879;28;20440;-87
2023/08/05 18:19:44;;;;;;;0.00;0.00;;;16.50;99.90;;;;;;5014396;28;20044;-88
2023/08/05 18:22:10;;;;;;;0.00;0.00;;;16.50;99.90;;;;;;5016197;28;20045;-86
2023/08/05 18:24:35;;;;;;;0.00;0.00;;;;;;;;;;5012643;28;20181;-86
2023/08/05 18:27:01;;;;;;;0.00;0.00;;;;;;;;;;5012553;28;20080;-87
2023/08/05 18:29:27;;;;;;;0.00;0.00;;;;;;;;;;5011172;28;20088;-86
2023/08/05 18:31:53;;;;;;;0.00;0.00;;;;;;;;;;5009064;28;20037;-86
2023/08/05 18:34:19;;;;;;;0.00;0.00;;;;;;;;;;5014703;28;20413;-86
2023/08/05 18:36:45;;;;;;;0.00;0.00;;;;;;;;;;5015582;28;20128;-87
2023/08/05 18:39:11;;;;;;;0.00;0.00;;;16.40;99.90;;;;;;5010971;28;20029;-86
2023/08/05 18:41:37;;;;;;;0.00;0.00;;;16.20;99.90;;;;;;5015263;28;20038;-87
2023/08/05 18:44:05;;;;;;;0.00;0.00;;;16.40;99.90;;;;;;5015289;28;20025;-86
2023/08/05 18:46:32;;;;;;;0.00;0.00;;;16.50;99.90;;;;;;5010612;28;20049;-86
